sensor_id;sensor_type;location;lat;lon;timestamp;P1;durP1;ratioP1;P2;durP2;ratioP2
22826;SDS011;11580;52.562;13.418;2023-10-31T00:01:55;7.40;;;5.60;;
22826;SDS011;11580;52.562;13.418;2023-10-31T00:04:23;6.30;;;5.33;;
22826;SDS011;11580;52.562;13.418;2023-10-31T00:06:50;5.40;;;4.90;;
22826;SDS011;11580;52.562;13.418;2023-10-31T00:09:18;5.83;;;5.30;;
22826;SDS011;11580;52.562;13.418;2023-10-31T00:11:45;5.97;;;5.47;;
22826;SDS011;11580;52.562;13.418;2023-10-31T00:14:12;5.40;;;4.87;;
22826;SDS011;11580;52.562;13.418;2023-10-31T00:16:39;6.20;;;5.63;;
22826;SDS011;11580;52.562;13.418;2023-10-31T00:19:06;5.60;;;5.07;;
22826;SDS011;11580;52.562;13.418;2023-10-31T00:21:35;4.93;;;4.53;;
22826;SDS011;11580;52.562;13.418;2023-10-31T00:24:02;7.47;;;6.23;;
22826;SDS011;11580;52.562;13.418;2023-10-31T00:26:30;5.80;;;5.23;;
22826;SDS011;11580;52.562;13.418;2023-10-31T00:28:57;5.80;;;5.30;;
22826;SDS011;11580;52.562;13.418;2023-10-31T00:31:24;5.77;;;5.27;;
22826;SDS011;11580;52.562;13.418;2023-10-31T00:33:51;6.20;;;5.60;;
22826;SDS011;11580;52.562;13.418;2023-10-31T00:36:18;8.80;;;6.30;;
22826;SDS011;11580;52.562;13.418;2023-10-31T00:38:47;6.93;;;6.33;;
22826;SDS011;11580;52.562;13.418;2023-10-31T00:41:14;6.00;;;5.30;;
22826;SDS011;11580;52.562;13.418;2023-10-31T00:43:41;5.63;;;5.13;;
22826;SDS011;11580;52.562;13.418;2023-10-31T00:46:08;6.00;;;5.50;;
22826;SDS011;11580;52.562;13.418;2023-10-31T00:48:35;5.40;;;5.00;;
22826;SDS011;11580;52.562;13.418;2023-10-31T00:51:03;6.60;;;6.00;;
22826;SDS011;11580;52.562;13.418;2023-10-31T00:53:30;6.00;;;5.50;;
22826;SDS011;11580;52.562;13.418;2023-10-31T00:55:59;6.80;;;6.13;;
22826;SDS011;11580;52.562;13.418;2023-10-31T00:58:27;7.10;;;6.03;;
22826;SDS011;11580;52.562;13.418;2023-10-31T01:00:54;6.10;;;5.60;;
22826;SDS011;11580;52.562;13.418;2023-10-31T01:03:22;5.80;;;5.30;;
22826;SDS011;11580;52.562;13.418;2023-10-31T01:05:49;7.03;;;6.33;;
22826;SDS011;11580;52.562;13.418;2023-10-31T01:08:16;6.07;;;5.47;;
22826;SDS011;11580;52.562;13.418;2023-10-31T01:10:43;6.70;;;5.27;;
22826;SDS011;11580;52.562;13.418;2023-10-31T01:13:13;6.70;;;6.10;;
22826;SDS011;11580;52.562;13.418;2023-10-31T01:15:40;6.63;;;5.47;;
22826;SDS011;11580;52.562;13.418;2023-10-31T01:18:07;6.70;;;6.10;;
22826;SDS011;11580;52.562;13.418;2023-10-31T01:20:34;5.87;;;5.27;;
22826;SDS011;11580;52.562;13.418;2023-10-31T01:23:02;6.13;;;5.53;;
22826;SDS011;11580;52.562;13.418;2023-10-31T01:25:30;6.93;;;6.23;;
22826;SDS011;11580;52.562;13.418;2023-10-31T01:27:57;7.43;;;5.63;;
22826;SDS011;11580;52.562;13.418;2023-10-31T01:30:25;6.87;;;6.27;;
22826;SDS011;11580;52.562;13.418;2023-10-31T01:32:53;6.43;;;5.80;;
22826;SDS011;11580;52.562;13.418;2023-10-31T01:35:20;6.47;;;5.87;;
22826;SDS011;11580;52.562;13.418;2023-10-31T01:37:47;6.00;;;5.40;;
22826;SDS011;11580;52.562;13.418;2023-10-31T01:40:14;6.03;;;5.20;;
22826;SDS011;11580;52.562;13.418;2023-10-31T01:42:41;6.63;;;5.80;;
22826;SDS011;11580;52.562;13.418;2023-10-31T01:45:09;6.27;;;5.77;;
22826;SDS011;11580;52.562;13.418;2023-10-31T01:47:38;6.37;;;5.83;;
22826;SDS011;11580;52.562;13.418;2023-10-31T01:50:06;6.00;;;5.50;;
22826;SDS011;11580;52.562;13.418;2023-10-31T01:52:35;6.67;;;6.10;;
22826;SDS011;11580;52.562;13.418;2023-10-31T01:55:03;7.47;;;6.83;;
22826;SDS011;11580;52.562;13.418;2023-10-31T01:57:32;8.80;;;6.80;;
22826;SDS011;11580;52.562;13.418;2023-10-31T01:59:59;6.00;;;5.60;;
22826;SDS011;11580;52.562;13.418;2023-10-31T02:02:38;6.00;;;5.20;;
22826;SDS011;11580;52.562;13.418;2023-10-31T02:05:07;6.43;;;5.83;;
22826;SDS011;11580;52.562;13.418;2023-10-31T02:07:36;8.33;;;5.30;;
22826;SDS011;11580;52.562;13.418;2023-10-31T02:10:03;6.23;;;5.80;;
22826;SDS011;11580;52.562;13.418;2023-10-31T02:12:32;9.77;;;5.87;;
22826;SDS011;11580;52.562;13.418;2023-10-31T02:15:00;6.87;;;6.17;;
22826;SDS011;11580;52.562;13.418;2023-10-31T02:17:28;6.63;;;6.07;;
22826;SDS011;11580;52.562;13.418;2023-10-31T02:19:57;7.13;;;6.50;;
22826;SDS011;11580;52.562;13.418;2023-10-31T02:22:25;6.37;;;5.87;;
22826;SDS011;11580;52.562;13.418;2023-10-31T02:24:53;6.27;;;5.77;;
22826;SDS011;11580;52.562;13.418;2023-10-31T02:27:20;7.57;;;6.90;;
22826;SDS011;11580;52.562;13.418;2023-10-31T02:29:47;8.00;;;7.20;;
22826;SDS011;11580;52.562;13.418;2023-10-31T02:32:14;6.70;;;6.20;;
22826;SDS011;11580;52.562;13.418;2023-10-31T02:34:41;6.90;;;6.30;;
22826;SDS011;11580;52.562;13.418;2023-10-31T02:37:10;7.50;;;6.80;;
22826;SDS011;11580;52.562;13.418;2023-10-31T02:39:39;7.57;;;6.77;;
22826;SDS011;11580;52.562;13.418;2023-10-31T02:42:06;7.17;;;6.47;;
22826;SDS011;11580;52.562;13.418;2023-10-31T02:44:34;7.20;;;6.50;;
22826;SDS011;11580;52.562;13.418;2023-10-31T02:47:01;6.33;;;5.73;;
22826;SDS011;11580;52.562;13.418;2023-10-31T02:49:28;6.70;;;6.10;;
22826;SDS011;11580;52.562;13.418;2023-10-31T02:51:55;7.33;;;6.63;;
22826;SDS011;11580;52.562;13.418;2023-10-31T02:54:22;7.23;;;6.53;;
22826;SDS011;11580;52.562;13.418;2023-10-31T02:56:51;7.87;;;7.17;;
22826;SDS011;11580;52.562;13.418;2023-10-31T02:59:18;7.53;;;6.93;;
22826;SDS011;11580;52.562;13.418;2023-10-31T03:01:45;7.03;;;6.40;;
22826;SDS011;11580;52.562;13.418;2023-10-31T03:04:12;7.37;;;6.77;;
22826;SDS011;11580;52.562;13.418;2023-10-31T03:06:40;7.30;;;6.60;;
22826;SDS011;11580;52.562;13.418;2023-10-31T03:09:07;7.33;;;6.63;;
22826;SDS011;11580;52.562;13.418;2023-10-31T03:11:34;6.70;;;6.20;;
22826;SDS011;11580;52.562;13.418;2023-10-31T03:14:02;8.20;;;7.53;;
22826;SDS011;11580;52.562;13.418;2023-10-31T03:16:30;7.60;;;6.97;;
22826;SDS011;11580;52.562;13.418;2023-10-31T03:18:57;7.40;;;6.80;;
22826;SDS011;11580;52.562;13.418;2023-10-31T03:21:25;6.83;;;6.23;;
22826;SDS011;11580;52.562;13.418;2023-10-31T03:23:52;7.63;;;6.80;;
22826;SDS011;11580;52.562;13.418;2023-10-31T03:26:21;7.70;;;6.40;;
22826;SDS011;11580;52.562;13.418;2023-10-31T03:28:49;7.20;;;6.50;;
22826;SDS011;11580;52.562;13.418;2023-10-31T03:31:18;7.40;;;6.70;;
22826;SDS011;11580;52.562;13.418;2023-10-31T03:33:45;7.77;;;7.07;;
22826;SDS011;11580;52.562;13.418;2023-10-31T03:36:12;8.10;;;7.40;;
22826;SDS011;11580;52.562;13.418;2023-10-31T03:38:39;7.13;;;6.60;;
22826;SDS011;11580;52.562;13.418;2023-10-31T03:41:06;7.90;;;7.20;;
22826;SDS011;11580;52.562;13.418;2023-10-31T03:43:34;7.33;;;6.60;;
22826;SDS011;11580;52.562;13.418;2023-10-31T03:46:04;7.50;;;6.97;;
22826;SDS011;11580;52.562;13.418;2023-10-31T03:48:32;8.03;;;7.23;;
22826;SDS011;11580;52.562;13.418;2023-10-31T03:51:00;7.77;;;7.17;;
22826;SDS011;11580;52.562;13.418;2023-10-31T03:53:27;7.90;;;7.20;;
22826;SDS011;11580;52.562;13.418;2023-10-31T03:55:54;7.00;;;6.40;;
22826;SDS011;11580;52.562;13.418;2023-10-31T03:58:21;8.20;;;7.50;;
22826;SDS011;11580;52.562;13.418;2023-10-31T04:00:49;7.80;;;7.10;;
22826;SDS011;11580;52.562;13.418;2023-10-31T04:03:16;8.17;;;7.27;;
22826;SDS011;11580;52.562;13.418;2023-10-31T04:05:44;7.10;;;6.40;;
22826;SDS011;11580;52.562;13.418;2023-10-31T04:08:12;7.93;;;7.23;;
22826;SDS011;11580;52.562;13.418;2023-10-31T04:10:39;7.23;;;6.73;;
22826;SDS011;11580;52.562;13.418;2023-10-31T04:13:06;8.00;;;7.27;;
22826;SDS011;11580;52.562;13.418;2023-10-31T04:15:33;7.77;;;7.07;;
22826;SDS011;11580;52.562;13.418;2023-10-31T04:18:01;8.20;;;7.50;;
22826;SDS011;11580;52.562;13.418;2023-10-31T04:20:28;7.00;;;6.37;;
22826;SDS011;11580;52.562;13.418;2023-10-31T04:22:57;7.70;;;6.43;;
22826;SDS011;11580;52.562;13.418;2023-10-31T04:25:24;7.70;;;7.00;;
22826;SDS011;11580;52.562;13.418;2023-10-31T04:27:54;6.60;;;6.00;;
22826;SDS011;11580;52.562;13.418;2023-10-31T04:30:21;6.97;;;6.40;;
22826;SDS011;11580;52.562;13.418;2023-10-31T04:32:48;7.07;;;6.67;;
22826;SDS011;11580;52.562;13.418;2023-10-31T04:35:15;8.27;;;7.57;;
22826;SDS011;11580;52.562;13.418;2023-10-31T04:37:43;7.83;;;7.13;;
22826;SDS011;11580;52.562;13.418;2023-10-31T04:40:12;7.27;;;6.77;;
22826;SDS011;11580;52.562;13.418;2023-10-31T04:42:39;7.80;;;7.17;;
22826;SDS011;11580;52.562;13.418;2023-10-31T04:45:07;7.37;;;6.77;;
22826;SDS011;11580;52.562;13.418;2023-10-31T04:47:35;6.80;;;6.30;;
22826;SDS011;11580;52.562;13.418;2023-10-31T04:50:03;6.83;;;6.00;;
22826;SDS011;11580;52.562;13.418;2023-10-31T04:52:30;7.70;;;7.10;;
22826;SDS011;11580;52.562;13.418;2023-10-31T04:54:58;8.00;;;7.40;;
22826;SDS011;11580;52.562;13.418;2023-10-31T04:57:26;8.17;;;7.37;;
22826;SDS011;11580;52.562;13.418;2023-10-31T04:59:53;7.90;;;7.30;;
22826;SDS011;11580;52.562;13.418;2023-10-31T05:02:22;7.70;;;7.00;;
22826;SDS011;11580;52.562;13.418;2023-10-31T05:04:49;7.20;;;6.60;;
22826;SDS011;11580;52.562;13.418;2023-10-31T05:07:17;7.03;;;6.53;;
22826;SDS011;11580;52.562;13.418;2023-10-31T05:09:44;7.60;;;7.10;;
22826;SDS011;11580;52.562;13.418;2023-10-31T05:12:11;7.17;;;6.47;;
22826;SDS011;11580;52.562;13.418;2023-10-31T05:14:41;7.87;;;7.27;;
22826;SDS011;11580;52.562;13.418;2023-10-31T05:17:08;8.20;;;7.50;;
22826;SDS011;11580;52.562;13.418;2023-10-31T05:19:35;7.50;;;6.90;;
22826;SDS011;11580;52.562;13.418;2023-10-31T05:22:02;7.40;;;6.80;;
22826;SDS011;11580;52.562;13.418;2023-10-31T05:24:29;7.60;;;7.00;;
22826;SDS011;11580;52.562;13.418;2023-10-31T05:26:57;8.20;;;7.40;;
22826;SDS011;11580;52.562;13.418;2023-10-31T05:29:24;7.33;;;6.73;;
22826;SDS011;11580;52.562;13.418;2023-10-31T05:31:53;7.33;;;6.73;;
22826;SDS011;11580;52.562;13.418;2023-10-31T05:34:20;7.67;;;6.97;;
22826;SDS011;11580;52.562;13.418;2023-10-31T05:36:47;7.30;;;6.70;;
22826;SDS011;11580;52.562;13.418;2023-10-31T05:39:15;7.30;;;6.80;;
22826;SDS011;11580;52.562;13.418;2023-10-31T05:41:42;7.23;;;6.63;;
22826;SDS011;11580;52.562;13.418;2023-10-31T05:44:09;7.07;;;6.57;;
22826;SDS011;11580;52.562;13.418;2023-10-31T05:46:37;6.70;;;6.17;;
22826;SDS011;11580;52.562;13.418;2023-10-31T05:49:07;7.07;;;6.50;;
22826;SDS011;11580;52.562;13.418;2023-10-31T05:51:37;6.30;;;5.90;;
22826;SDS011;11580;52.562;13.418;2023-10-31T05:54:06;6.37;;;5.87;;
22826;SDS011;11580;52.562;13.418;2023-10-31T05:56:34;6.43;;;5.80;;
22826;SDS011;11580;52.562;13.418;2023-10-31T05:59:01;5.93;;;5.50;;
22826;SDS011;11580;52.562;13.418;2023-10-31T06:01:28;5.43;;;5.07;;
22826;SDS011;11580;52.562;13.418;2023-10-31T06:03:55;5.60;;;5.20;;
22826;SDS011;11580;52.562;13.418;2023-10-31T06:06:24;5.00;;;4.60;;
22826;SDS011;11580;52.562;13.418;2023-10-31T06:08:51;5.27;;;4.97;;
22826;SDS011;11580;52.562;13.418;2023-10-31T06:11:18;5.10;;;4.37;;
22826;SDS011;11580;52.562;13.418;2023-10-31T06:13:45;4.60;;;4.30;;
22826;SDS011;11580;52.562;13.418;2023-10-31T06:16:13;4.53;;;4.20;;
22826;SDS011;11580;52.562;13.418;2023-10-31T06:18:41;4.80;;;4.50;;
22826;SDS011;11580;52.562;13.418;2023-10-31T06:21:08;4.50;;;4.20;;
22826;SDS011;11580;52.562;13.418;2023-10-31T06:23:36;4.67;;;4.37;;
22826;SDS011;11580;52.562;13.418;2023-10-31T06:26:04;5.20;;;4.90;;
22826;SDS011;11580;52.562;13.418;2023-10-31T06:28:31;6.07;;;5.63;;
22826;SDS011;11580;52.562;13.418;2023-10-31T06:31:02;5.70;;;5.30;;
22826;SDS011;11580;52.562;13.418;2023-10-31T06:33:29;5.47;;;5.07;;
22826;SDS011;11580;52.562;13.418;2023-10-31T06:35:56;5.40;;;5.00;;
22826;SDS011;11580;52.562;13.418;2023-10-31T06:38:23;6.23;;;5.83;;
22826;SDS011;11580;52.562;13.418;2023-10-31T06:40:52;5.77;;;5.37;;
22826;SDS011;11580;52.562;13.418;2023-10-31T06:43:19;5.30;;;4.80;;
22826;SDS011;11580;52.562;13.418;2023-10-31T06:45:46;6.20;;;5.73;;
22826;SDS011;11580;52.562;13.418;2023-10-31T06:48:13;5.13;;;4.83;;
22826;SDS011;11580;52.562;13.418;2023-10-31T06:50:41;6.60;;;6.07;;
22826;SDS011;11580;52.562;13.418;2023-10-31T06:53:08;5.33;;;4.93;;
22826;SDS011;11580;52.562;13.418;2023-10-31T06:55:35;6.20;;;5.67;;
22826;SDS011;11580;52.562;13.418;2023-10-31T06:58:03;6.23;;;5.73;;
22826;SDS011;11580;52.562;13.418;2023-10-31T07:00:31;5.77;;;5.37;;
22826;SDS011;11580;52.562;13.418;2023-10-31T07:02:58;5.70;;;5.30;;
22826;SDS011;11580;52.562;13.418;2023-10-31T07:05:30;5.50;;;5.10;;
22826;SDS011;11580;52.562;13.418;2023-10-31T07:07:57;4.83;;;4.53;;
22826;SDS011;11580;52.562;13.418;2023-10-31T07:10:25;4.80;;;4.47;;
22826;SDS011;11580;52.562;13.418;2023-10-31T07:12:52;6.00;;;5.33;;
22826;SDS011;11580;52.562;13.418;2023-10-31T07:15:21;4.67;;;4.33;;
22826;SDS011;11580;52.562;13.418;2023-10-31T07:17:48;4.70;;;4.30;;
22826;SDS011;11580;52.562;13.418;2023-10-31T07:20:15;4.10;;;3.80;;
22826;SDS011;11580;52.562;13.418;2023-10-31T07:22:42;4.80;;;4.10;;
22826;SDS011;11580;52.562;13.418;2023-10-31T07:25:10;3.77;;;3.47;;
22826;SDS011;11580;52.562;13.418;2023-10-31T07:27:37;3.70;;;3.50;;
22826;SDS011;11580;52.562;13.418;2023-10-31T07:30:05;3.53;;;3.23;;
22826;SDS011;11580;52.562;13.418;2023-10-31T07:32:34;3.10;;;2.87;;
22826;SDS011;11580;52.562;13.418;2023-10-31T07:35:01;2.80;;;2.60;;
22826;SDS011;11580;52.562;13.418;2023-10-31T07:37:30;3.00;;;2.67;;
22826;SDS011;11580;52.562;13.418;2023-10-31T07:39:57;2.47;;;2.30;;
22826;SDS011;11580;52.562;13.418;2023-10-31T07:42:24;2.60;;;2.37;;
22826;SDS011;11580;52.562;13.418;2023-10-31T07:44:51;2.63;;;2.20;;
22826;SDS011;11580;52.562;13.418;2023-10-31T07:47:18;2.90;;;2.70;;
22826;SDS011;11580;52.562;13.418;2023-10-31T07:49:47;2.80;;;2.60;;
22826;SDS011;11580;52.562;13.418;2023-10-31T07:52:14;2.77;;;2.57;;
22826;SDS011;11580;52.562;13.418;2023-10-31T07:54:41;2.77;;;2.60;;
22826;SDS011;11580;52.562;13.418;2023-10-31T07:57:09;2.70;;;2.50;;
22826;SDS011;11580;52.562;13.418;2023-10-31T07:59:36;2.87;;;2.67;;
22826;SDS011;11580;52.562;13.418;2023-10-31T08:02:03;2.30;;;2.10;;
22826;SDS011;11580;52.562;13.418;2023-10-31T08:04:31;2.27;;;2.07;;
22826;SDS011;11580;52.562;13.418;2023-10-31T08:06:59;2.33;;;2.23;;
22826;SDS011;11580;52.562;13.418;2023-10-31T08:09:26;2.40;;;2.20;;
22826;SDS011;11580;52.562;13.418;2023-10-31T08:11:54;2.03;;;1.93;;
22826;SDS011;11580;52.562;13.418;2023-10-31T08:14:21;1.93;;;1.83;;
22826;SDS011;11580;52.562;13.418;2023-10-31T08:16:48;1.80;;;1.70;;
22826;SDS011;11580;52.562;13.418;2023-10-31T08:19:15;1.70;;;1.50;;
22826;SDS011;11580;52.562;13.418;2023-10-31T08:21:42;1.73;;;1.63;;
22826;SDS011;11580;52.562;13.418;2023-10-31T08:24:11;1.67;;;1.57;;
22826;SDS011;11580;52.562;13.418;2023-10-31T08:26:38;1.53;;;1.43;;
22826;SDS011;11580;52.562;13.418;2023-10-31T08:29:05;1.60;;;1.50;;
22826;SDS011;11580;52.562;13.418;2023-10-31T08:31:33;4.00;;;1.43;;
22826;SDS011;11580;52.562;13.418;2023-10-31T08:34:00;1.50;;;1.40;;
22826;SDS011;11580;52.562;13.418;2023-10-31T08:36:27;1.60;;;1.50;;
22826;SDS011;11580;52.562;13.418;2023-10-31T08:38:55;1.37;;;1.27;;
22826;SDS011;11580;52.562;13.418;2023-10-31T08:41:24;1.70;;;1.60;;
22826;SDS011;11580;52.562;13.418;2023-10-31T08:43:51;1.67;;;1.57;;
22826;SDS011;11580;52.562;13.418;2023-10-31T08:46:19;1.60;;;1.50;;
22826;SDS011;11580;52.562;13.418;2023-10-31T08:48:47;1.20;;;1.10;;
22826;SDS011;11580;52.562;13.418;2023-10-31T08:51:14;1.40;;;1.30;;
22826;SDS011;11580;52.562;13.418;2023-10-31T08:53:41;1.10;;;1.10;;
22826;SDS011;11580;52.562;13.418;2023-10-31T08:56:08;1.50;;;1.40;;
22826;SDS011;11580;52.562;13.418;2023-10-31T08:58:37;1.17;;;1.07;;
22826;SDS011;11580;52.562;13.418;2023-10-31T09:01:04;1.23;;;1.03;;
22826;SDS011;11580;52.562;13.418;2023-10-31T09:03:31;1.10;;;1.00;;
22826;SDS011;11580;52.562;13.418;2023-10-31T09:05:59;1.17;;;1.10;;
22826;SDS011;11580;52.562;13.418;2023-10-31T09:08:27;1.27;;;1.17;;
22826;SDS011;11580;52.562;13.418;2023-10-31T09:10:54;1.00;;;1.00;;
22826;SDS011;11580;52.562;13.418;2023-10-31T09:13:21;1.23;;;1.10;;
22826;SDS011;11580;52.562;13.418;2023-10-31T09:15:50;1.43;;;1.13;;
22826;SDS011;11580;52.562;13.418;2023-10-31T09:18:17;1.57;;;1.00;;
22826;SDS011;11580;52.562;13.418;2023-10-31T09:20:44;1.00;;;1.00;;
22826;SDS011;11580;52.562;13.418;2023-10-31T09:23:11;0.83;;;0.83;;
22826;SDS011;11580;52.562;13.418;2023-10-31T09:25:39;1.23;;;1.00;;
22826;SDS011;11580;52.562;13.418;2023-10-31T09:28:06;1.63;;;1.13;;
22826;SDS011;11580;52.562;13.418;2023-10-31T09:30:33;1.70;;;0.90;;
22826;SDS011;11580;52.562;13.418;2023-10-31T09:33:02;0.77;;;0.77;;
22826;SDS011;11580;52.562;13.418;2023-10-31T09:35:29;1.20;;;0.90;;
22826;SDS011;11580;52.562;13.418;2023-10-31T09:37:56;1.53;;;1.43;;
22826;SDS011;11580;52.562;13.418;2023-10-31T09:40:23;1.70;;;0.80;;
22826;SDS011;11580;52.562;13.418;2023-10-31T09:42:51;1.03;;;0.70;;
22826;SDS011;11580;52.562;13.418;2023-10-31T09:45:18;1.20;;;1.10;;
22826;SDS011;11580;52.562;13.418;2023-10-31T09:47:46;0.80;;;0.80;;
22826;SDS011;11580;52.562;13.418;2023-10-31T09:50:14;1.67;;;1.00;;
22826;SDS011;11580;52.562;13.418;2023-10-31T09:52:41;1.00;;;0.93;;
22826;SDS011;11580;52.562;13.418;2023-10-31T09:55:10;1.23;;;1.00;;
22826;SDS011;11580;52.562;13.418;2023-10-31T09:57:37;1.17;;;1.07;;
22826;SDS011;11580;52.562;13.418;2023-10-31T10:00:05;1.00;;;1.00;;
22826;SDS011;11580;52.562;13.418;2023-10-31T10:02:35;1.40;;;1.23;;
22826;SDS011;11580;52.562;13.418;2023-10-31T10:05:03;1.77;;;1.07;;
22826;SDS011;11580;52.562;13.418;2023-10-31T10:07:32;2.43;;;1.40;;
22826;SDS011;11580;52.562;13.418;2023-10-31T10:10:01;1.50;;;1.40;;
22826;SDS011;11580;52.562;13.418;2023-10-31T10:12:28;1.73;;;1.47;;
22826;SDS011;11580;52.562;13.418;2023-10-31T10:14:56;1.80;;;1.70;;
22826;SDS011;11580;52.562;13.418;2023-10-31T10:17:24;1.40;;;1.30;;
22826;SDS011;11580;52.562;13.418;2023-10-31T10:20:04;1.20;;;1.10;;
22826;SDS011;11580;52.562;13.418;2023-10-31T10:22:37;1.60;;;1.43;;
22826;SDS011;11580;52.562;13.418;2023-10-31T10:25:07;0.97;;;0.93;;
22826;SDS011;11580;52.562;13.418;2023-10-31T10:27:37;1.50;;;1.40;;
22826;SDS011;11580;52.562;13.418;2023-10-31T10:30:04;1.37;;;1.27;;
22826;SDS011;11580;52.562;13.418;2023-10-31T10:32:34;1.47;;;1.37;;
22826;SDS011;11580;52.562;13.418;2023-10-31T10:35:02;1.50;;;1.40;;
22826;SDS011;11580;52.562;13.418;2023-10-31T10:37:30;1.60;;;1.50;;
22826;SDS011;11580;52.562;13.418;2023-10-31T10:39:59;1.50;;;1.40;;
22826;SDS011;11580;52.562;13.418;2023-10-31T10:42:30;1.93;;;1.50;;
22826;SDS011;11580;52.562;13.418;2023-10-31T10:45:01;2.23;;;2.13;;
22826;SDS011;11580;52.562;13.418;2023-10-31T10:47:31;1.80;;;1.70;;
22826;SDS011;11580;52.562;13.418;2023-10-31T10:50:00;1.50;;;1.40;;
22826;SDS011;11580;52.562;13.418;2023-10-31T10:52:30;1.97;;;1.50;;
22826;SDS011;11580;52.562;13.418;2023-10-31T10:55:11;2.33;;;1.83;;
22826;SDS011;11580;52.562;13.418;2023-10-31T10:57:48;1.90;;;1.50;;
22826;SDS011;11580;52.562;13.418;2023-10-31T11:00:26;1.70;;;1.60;;
22826;SDS011;11580;52.562;13.418;2023-10-31T11:02:55;1.63;;;1.53;;
22826;SDS011;11580;52.562;13.418;2023-10-31T11:05:23;1.40;;;1.33;;
22826;SDS011;11580;52.562;13.418;2023-10-31T11:07:51;1.73;;;1.63;;
22826;SDS011;11580;52.562;13.418;2023-10-31T11:10:21;1.63;;;1.53;;
22826;SDS011;11580;52.562;13.418;2023-10-31T11:12:49;1.97;;;1.87;;
22826;SDS011;11580;52.562;13.418;2023-10-31T11:15:17;2.10;;;1.90;;
22826;SDS011;11580;52.562;13.418;2023-10-31T11:17:45;3.70;;;2.00;;
22826;SDS011;11580;52.562;13.418;2023-10-31T11:20:15;2.57;;;2.10;;
22826;SDS011;11580;52.562;13.418;2023-10-31T11:22:44;2.33;;;2.07;;
22826;SDS011;11580;52.562;13.418;2023-10-31T11:25:14;2.40;;;2.30;;
22826;SDS011;11580;52.562;13.418;2023-10-31T11:27:46;2.40;;;2.20;;
22826;SDS011;11580;52.562;13.418;2023-10-31T11:30:20;2.30;;;2.20;;
22826;SDS011;11580;52.562;13.418;2023-10-31T11:32:53;2.23;;;2.13;;
22826;SDS011;11580;52.562;13.418;2023-10-31T11:35:21;2.63;;;2.43;;
22826;SDS011;11580;52.562;13.418;2023-10-31T11:37:49;1.90;;;1.80;;
22826;SDS011;11580;52.562;13.418;2023-10-31T11:40:28;2.10;;;2.00;;
22826;SDS011;11580;52.562;13.418;2023-10-31T11:42:57;2.10;;;2.00;;
22826;SDS011;11580;52.562;13.418;2023-10-31T11:45:30;2.10;;;1.90;;
22826;SDS011;11580;52.562;13.418;2023-10-31T11:48:02;2.37;;;2.17;;
22826;SDS011;11580;52.562;13.418;2023-10-31T11:50:30;2.00;;;1.80;;
22826;SDS011;11580;52.562;13.418;2023-10-31T11:53:05;3.10;;;1.90;;
22826;SDS011;11580;52.562;13.418;2023-10-31T11:55:39;1.87;;;1.77;;
22826;SDS011;11580;52.562;13.418;2023-10-31T11:58:17;2.13;;;2.03;;
22826;SDS011;11580;52.562;13.418;2023-10-31T12:00:45;2.10;;;2.00;;
22826;SDS011;11580;52.562;13.418;2023-10-31T12:03:15;2.93;;;2.03;;
22826;SDS011;11580;52.562;13.418;2023-10-31T12:05:53;1.97;;;1.87;;
22826;SDS011;11580;52.562;13.418;2023-10-31T12:08:26;6.90;;;1.70;;
22826;SDS011;11580;52.562;13.418;2023-10-31T12:11:02;2.27;;;2.07;;
22826;SDS011;11580;52.562;13.418;2023-10-31T12:13:36;1.47;;;1.37;;
22826;SDS011;11580;52.562;13.418;2023-10-31T12:16:06;1.67;;;1.50;;
22826;SDS011;11580;52.562;13.418;2023-10-31T12:18:36;1.80;;;1.70;;
22826;SDS011;11580;52.562;13.418;2023-10-31T12:21:06;1.70;;;1.60;;
22826;SDS011;11580;52.562;13.418;2023-10-31T12:23:33;1.97;;;1.50;;
22826;SDS011;11580;52.562;13.418;2023-10-31T12:26:01;1.03;;;1.03;;
22826;SDS011;11580;52.562;13.418;2023-10-31T12:28:28;1.40;;;1.30;;
22826;SDS011;11580;52.562;13.418;2023-10-31T12:30:57;1.20;;;1.20;;
22826;SDS011;11580;52.562;13.418;2023-10-31T12:33:25;1.30;;;1.20;;
22826;SDS011;11580;52.562;13.418;2023-10-31T12:35:56;1.83;;;1.60;;
22826;SDS011;11580;52.562;13.418;2023-10-31T12:38:26;1.43;;;1.30;;
22826;SDS011;11580;52.562;13.418;2023-10-31T12:40:55;1.13;;;1.07;;
22826;SDS011;11580;52.562;13.418;2023-10-31T12:43:23;1.87;;;1.30;;
22826;SDS011;11580;52.562;13.418;2023-10-31T12:45:52;1.20;;;1.10;;
22826;SDS011;11580;52.562;13.418;2023-10-31T12:48:23;1.17;;;1.17;;
22826;SDS011;11580;52.562;13.418;2023-10-31T12:50:55;1.43;;;1.33;;
22826;SDS011;11580;52.562;13.418;2023-10-31T12:53:34;1.13;;;1.00;;
22826;SDS011;11580;52.562;13.418;2023-10-31T12:56:01;1.10;;;1.00;;
22826;SDS011;11580;52.562;13.418;2023-10-31T12:58:28;1.20;;;0.93;;
22826;SDS011;11580;52.562;13.418;2023-10-31T13:00:56;1.63;;;0.90;;
22826;SDS011;11580;52.562;13.418;2023-10-31T13:03:25;2.90;;;0.90;;
22826;SDS011;11580;52.562;13.418;2023-10-31T13:05:52;1.33;;;1.10;;
22826;SDS011;11580;52.562;13.418;2023-10-31T13:08:22;1.23;;;1.13;;
22826;SDS011;11580;52.562;13.418;2023-10-31T13:10:49;1.30;;;1.17;;
22826;SDS011;11580;52.562;13.418;2023-10-31T13:13:18;1.20;;;1.00;;
22826;SDS011;11580;52.562;13.418;2023-10-31T13:15:45;1.00;;;0.90;;
22826;SDS011;11580;52.562;13.418;2023-10-31T13:18:12;1.17;;;0.80;;
22826;SDS011;11580;52.562;13.418;2023-10-31T13:20:41;0.80;;;0.80;;
22826;SDS011;11580;52.562;13.418;2023-10-31T13:23:08;1.47;;;1.00;;
22826;SDS011;11580;52.562;13.418;2023-10-31T13:25:36;0.90;;;0.83;;
22826;SDS011;11580;52.562;13.418;2023-10-31T13:28:03;0.87;;;0.87;;
22826;SDS011;11580;52.562;13.418;2023-10-31T13:30:32;1.53;;;0.90;;
22826;SDS011;11580;52.562;13.418;2023-10-31T13:32:59;1.10;;;1.00;;
22826;SDS011;11580;52.562;13.418;2023-10-31T13:35:27;1.00;;;1.00;;
22826;SDS011;11580;52.562;13.418;2023-10-31T13:37:55;1.03;;;1.03;;
22826;SDS011;11580;52.562;13.418;2023-10-31T13:40:22;1.37;;;1.03;;
22826;SDS011;11580;52.562;13.418;2023-10-31T13:42:50;1.43;;;1.07;;
22826;SDS011;11580;52.562;13.418;2023-10-31T13:45:17;0.87;;;0.87;;
22826;SDS011;11580;52.562;13.418;2023-10-31T13:47:44;0.80;;;0.77;;
22826;SDS011;11580;52.562;13.418;2023-10-31T13:50:11;1.10;;;1.00;;
22826;SDS011;11580;52.562;13.418;2023-10-31T13:52:38;0.80;;;0.80;;
22826;SDS011;11580;52.562;13.418;2023-10-31T13:55:07;1.00;;;0.90;;
22826;SDS011;11580;52.562;13.418;2023-10-31T13:57:34;0.80;;;0.80;;
22826;SDS011;11580;52.562;13.418;2023-10-31T14:00:02;1.33;;;0.87;;
22826;SDS011;11580;52.562;13.418;2023-10-31T14:02:38;1.33;;;1.23;;
22826;SDS011;11580;52.562;13.418;2023-10-31T14:05:06;1.00;;;0.80;;
22826;SDS011;11580;52.562;13.418;2023-10-31T14:07:33;0.70;;;0.70;;
22826;SDS011;11580;52.562;13.418;2023-10-31T14:10:01;0.90;;;0.90;;
22826;SDS011;11580;52.562;13.418;2023-10-31T14:12:30;1.17;;;1.07;;
22826;SDS011;11580;52.562;13.418;2023-10-31T14:14:57;0.87;;;0.83;;
22826;SDS011;11580;52.562;13.418;2023-10-31T14:17:24;1.73;;;1.10;;
22826;SDS011;11580;52.562;13.418;2023-10-31T14:19:51;1.07;;;0.90;;
22826;SDS011;11580;52.562;13.418;2023-10-31T14:22:19;0.80;;;0.80;;
22826;SDS011;11580;52.562;13.418;2023-10-31T14:24:46;1.90;;;1.10;;
22826;SDS011;11580;52.562;13.418;2023-10-31T14:27:13;1.03;;;1.03;;
22826;SDS011;11580;52.562;13.418;2023-10-31T14:29:41;0.83;;;0.80;;
22826;SDS011;11580;52.562;13.418;2023-10-31T14:32:09;0.97;;;0.97;;
22826;SDS011;11580;52.562;13.418;2023-10-31T14:34:36;0.60;;;0.60;;
22826;SDS011;11580;52.562;13.418;2023-10-31T14:37:03;1.30;;;0.80;;
22826;SDS011;11580;52.562;13.418;2023-10-31T14:39:31;1.13;;;0.90;;